sensor_id;sensor_type;location;lat;lon;timestamp;pressure;altitude;pressure_sealevel;temperature;humidity
54978;BME280;40873;47.522;19.106;2023-02-20T00:00:41;101036.47;;;4.87;66.31
54978;BME280;40873;47.522;19.106;2023-02-20T00:03:23;101029.44;;;4.89;65.96
54978;BME280;40873;47.522;19.106;2023-02-20T00:05:53;101034.28;;;4.70;65.55
54978;BME280;40873;47.522;19.106;2023-02-20T00:08:20;101039.78;;;4.59;66.38
54978;BME280;40873;47.522;19.106;2023-02-20T00:10:48;101044.84;;;4.65;66.77
54978;BME280;40873;47.522;19.106;2023-02-20T00:13:15;101039.56;;;4.68;66.97
54978;BME280;40873;47.522;19.106;2023-02-20T00:15:45;101042.31;;;4.62;67.34
54978;BME280;40873;47.522;19.106;2023-02-20T00:18:12;101051.81;;;4.65;65.35
54978;BME280;40873;47.522;19.106;2023-02-20T00:20:42;101045.97;;;4.55;64.72
54978;BME280;40873;47.522;19.106;2023-02-20T00:23:10;101053.44;;;4.71;64.21
54978;BME280;40873;47.522;19.106;2023-02-20T00:25:37;101050.91;;;4.67;63.93
54978;BME280;40873;47.522;19.106;2023-02-20T00:28:04;101055.22;;;4.68;65.10
54978;BME280;40873;47.522;19.106;2023-02-20T00:30:31;101062.25;;;4.66;65.13
54978;BME280;40873;47.522;19.106;2023-02-20T00:32:58;101062.56;;;4.54;63.74
54978;BME280;40873;47.522;19.106;2023-02-20T00:35:26;101073.88;;;4.55;64.35
54978;BME280;40873;47.522;19.106;2023-02-20T00:37:53;101078.19;;;4.56;64.43
54978;BME280;40873;47.522;19.106;2023-02-20T00:40:23;101079.22;;;4.49;65.11
54978;BME280;40873;47.522;19.106;2023-02-20T00:42:52;101079.22;;;4.49;63.32
54978;BME280;40873;47.522;19.106;2023-02-20T00:45:19;101087.88;;;4.51;64.31
54978;BME280;40873;47.522;19.106;2023-02-20T00:47:46;101089.59;;;4.53;64.37
54978;BME280;40873;47.522;19.106;2023-02-20T00:50:15;101081.00;;;4.48;64.48
54978;BME280;40873;47.522;19.106;2023-02-20T00:52:42;101085.41;;;4.45;65.11
54978;BME280;40873;47.522;19.106;2023-02-20T00:55:09;101103.78;;;4.42;64.74
54978;BME280;40873;47.522;19.106;2023-02-20T00:57:36;101093.28;;;4.43;64.01
54978;BME280;40873;47.522;19.106;2023-02-20T01:00:06;101104.78;;;4.36;64.82
54978;BME280;40873;47.522;19.106;2023-02-20T01:02:33;101096.03;;;4.37;64.34
54978;BME280;40873;47.522;19.106;2023-02-20T01:05:02;101102.13;;;4.37;64.89
54978;BME280;40873;47.522;19.106;2023-02-20T01:07:29;101092.44;;;4.43;64.32
54978;BME280;40873;47.522;19.106;2023-02-20T01:09:56;101085.63;;;4.35;64.92
54978;BME280;40873;47.522;19.106;2023-02-20T01:12:23;101087.16;;;4.46;64.32
54978;BME280;40873;47.522;19.106;2023-02-20T01:14:50;101094.22;;;4.40;64.22
54978;BME280;40873;47.522;19.106;2023-02-20T01:17:17;101094.28;;;4.37;64.90
54978;BME280;40873;47.522;19.106;2023-02-20T01:19:44;101093.56;;;4.32;64.47
54978;BME280;40873;47.522;19.106;2023-02-20T01:22:11;101093.56;;;4.31;64.22
54978;BME280;40873;47.522;19.106;2023-02-20T01:24:37;101092.69;;;4.32;64.80
54978;BME280;40873;47.522;19.106;2023-02-20T01:27:05;101100.59;;;4.29;64.98
54978;BME280;40873;47.522;19.106;2023-02-20T01:29:32;101089.19;;;4.33;65.14
54978;BME280;40873;47.522;19.106;2023-02-20T01:31:59;101098.69;;;4.35;65.56
54978;BME280;40873;47.522;19.106;2023-02-20T01:34:26;101112.00;;;4.25;65.28
54978;BME280;40873;47.522;19.106;2023-02-20T01:36:54;101127.81;;;4.19;65.82
54978;BME280;40873;47.522;19.106;2023-02-20T01:39:24;101114.00;;;4.13;65.41
54978;BME280;40873;47.522;19.106;2023-02-20T01:41:59;101111.53;;;4.06;66.30
54978;BME280;40873;47.522;19.106;2023-02-20T01:44:29;101118.00;;;3.90;67.83
54978;BME280;40873;47.522;19.106;2023-02-20T01:47:01;101125.59;;;4.00;68.61
54978;BME280;40873;47.522;19.106;2023-02-20T01:49:33;101124.00;;;3.93;70.44
54978;BME280;40873;47.522;19.106;2023-02-20T01:52:29;101128.41;;;3.91;71.52
54978;BME280;40873;47.522;19.106;2023-02-20T01:54:58;101135.66;;;3.77;72.77
54978;BME280;40873;47.522;19.106;2023-02-20T01:57:28;101141.06;;;3.66;73.65
54978;BME280;40873;47.522;19.106;2023-02-20T02:00:05;101145.59;;;3.56;74.77
54978;BME280;40873;47.522;19.106;2023-02-20T02:02:34;101134.25;;;3.59;75.11
54978;BME280;40873;47.522;19.106;2023-02-20T02:05:03;101137.94;;;3.49;75.49
54978;BME280;40873;47.522;19.106;2023-02-20T02:07:31;101120.72;;;3.39;76.05
54978;BME280;40873;47.522;19.106;2023-02-20T02:10:02;101121.66;;;3.35;76.39
54978;BME280;40873;47.522;19.106;2023-02-20T02:12:30;101125.91;;;3.39;76.57
54978;BME280;40873;47.522;19.106;2023-02-20T02:14:57;101124.41;;;3.27;77.16
54978;BME280;40873;47.522;19.106;2023-02-20T02:17:28;101125.28;;;3.27;77.50
54978;BME280;40873;47.522;19.106;2023-02-20T02:20:35;101138.41;;;3.20;78.17
54978;BME280;40873;47.522;19.106;2023-02-20T02:44:16;101175.06;;;3.12;81.87
54978;BME280;40873;47.522;19.106;2023-02-20T02:52:10;101176.16;;;2.97;84.72
54978;BME280;40873;47.522;19.106;2023-02-20T02:54:38;101179.75;;;2.90;85.72
54978;BME280;40873;47.522;19.106;2023-02-20T02:59:54;101180.56;;;2.95;86.52
54978;BME280;40873;47.522;19.106;2023-02-20T03:02:27;101174.66;;;2.86;87.34
54978;BME280;40873;47.522;19.106;2023-02-20T03:04:57;101188.56;;;2.83;88.03
54978;BME280;40873;47.522;19.106;2023-02-20T03:07:27;101197.19;;;2.88;88.39
54978;BME280;40873;47.522;19.106;2023-02-20T03:10:00;101187.63;;;2.87;88.52
54978;BME280;40873;47.522;19.106;2023-02-20T03:12:30;101198.19;;;2.78;89.28
54978;BME280;40873;47.522;19.106;2023-02-20T03:15:01;101188.53;;;2.85;89.42
54978;BME280;40873;47.522;19.106;2023-02-20T03:18:11;101179.03;;;2.82;89.23
54978;BME280;40873;47.522;19.106;2023-02-20T03:20:44;101176.47;;;2.79;89.53
54978;BME280;40873;47.522;19.106;2023-02-20T03:23:20;101184.41;;;2.71;89.90
54978;BME280;40873;47.522;19.106;2023-02-20T03:26:25;101171.31;;;2.74;89.68
54978;BME280;40873;47.522;19.106;2023-02-20T03:29:03;101171.28;;;2.76;89.92
54978;BME280;40873;47.522;19.106;2023-02-20T03:31:44;101172.91;;;2.83;88.94
54978;BME280;40873;47.522;19.106;2023-02-20T03:34:20;101179.19;;;2.71;89.95
54978;BME280;40873;47.522;19.106;2023-02-20T03:37:19;101170.47;;;2.74;90.11
54978;BME280;40873;47.522;19.106;2023-02-20T03:40:09;101175.53;;;2.83;88.96
54978;BME280;40873;47.522;19.106;2023-02-20T03:42:58;101177.28;;;2.83;89.24
54978;BME280;40873;47.522;19.106;2023-02-20T03:45:46;101196.41;;;2.82;88.92
54978;BME280;40873;47.522;19.106;2023-02-20T03:48:21;101191.91;;;2.91;88.86
54978;BME280;40873;47.522;19.106;2023-02-20T03:50:51;101201.28;;;3.03;87.96
54978;BME280;40873;47.522;19.106;2023-02-20T03:53:39;101201.22;;;3.08;87.81
54978;BME280;40873;47.522;19.106;2023-02-20T03:56:12;101208.09;;;3.12;86.96
54978;BME280;40873;47.522;19.106;2023-02-20T03:58:45;101205.56;;;3.09;86.62
54978;BME280;40873;47.522;19.106;2023-02-20T04:01:14;101210.75;;;3.09;86.34
54978;BME280;40873;47.522;19.106;2023-02-20T04:03:46;101204.75;;;3.03;86.41
54978;BME280;40873;47.522;19.106;2023-02-20T04:06:16;101200.38;;;3.06;85.73
54978;BME280;40873;47.522;19.106;2023-02-20T04:08:58;101195.97;;;3.09;85.61
54978;BME280;40873;47.522;19.106;2023-02-20T04:11:36;101191.00;;;2.94;85.81
54978;BME280;40873;47.522;19.106;2023-02-20T04:14:06;101186.53;;;3.02;86.05
54978;BME280;40873;47.522;19.106;2023-02-20T04:16:36;101180.56;;;2.95;86.55
54978;BME280;40873;47.522;19.106;2023-02-20T04:19:04;101188.31;;;2.98;86.39
54978;BME280;40873;47.522;19.106;2023-02-20T04:21:37;101186.47;;;3.05;85.98
54978;BME280;40873;47.522;19.106;2023-02-20T04:24:11;101184.09;;;2.93;86.49
54978;BME280;40873;47.522;19.106;2023-02-20T04:26:39;101188.56;;;2.83;87.27
54978;BME280;40873;47.522;19.106;2023-02-20T04:29:07;101187.88;;;2.72;87.68
54978;BME280;40873;47.522;19.106;2023-02-20T04:31:33;101197.50;;;2.67;88.65
54978;BME280;40873;47.522;19.106;2023-02-20T04:34:01;101202.72;;;2.67;88.68
54978;BME280;40873;47.522;19.106;2023-02-20T04:36:28;101206.91;;;2.75;88.42
54978;BME280;40873;47.522;19.106;2023-02-20T04:38:55;101207.06;;;2.66;88.90
54978;BME280;40873;47.522;19.106;2023-02-20T04:41:22;101214.00;;;2.67;88.98
54978;BME280;40873;47.522;19.106;2023-02-20T04:43:49;101206.09;;;2.73;88.37
54978;BME280;40873;47.522;19.106;2023-02-20T04:46:36;101205.19;;;2.74;88.04
54978;BME280;40873;47.522;19.106;2023-02-20T04:49:03;101193.16;;;2.67;88.27
54978;BME280;40873;47.522;19.106;2023-02-20T04:51:30;101189.63;;;2.70;88.10
54978;BME280;40873;47.522;19.106;2023-02-20T04:53:57;101181.81;;;2.71;88.30
54978;BME280;40873;47.522;19.106;2023-02-20T04:56:24;101186.94;;;2.76;88.16
54978;BME280;40873;47.522;19.106;2023-02-20T04:58:51;101189.69;;;2.67;88.22
54978;BME280;40873;47.522;19.106;2023-02-20T05:01:18;101187.13;;;2.62;88.96
54978;BME280;40873;47.522;19.106;2023-02-20T05:03:45;101187.84;;;2.73;89.31
54978;BME280;40873;47.522;19.106;2023-02-20T05:06:12;101188.53;;;2.85;89.00
54978;BME280;40873;47.522;19.106;2023-02-20T05:08:39;101187.34;;;3.06;87.58
54978;BME280;40873;47.522;19.106;2023-02-20T05:11:06;101191.72;;;3.03;87.01
54978;BME280;40873;47.522;19.106;2023-02-20T05:13:33;101191.84;;;2.96;87.56
54978;BME280;40873;47.522;19.106;2023-02-20T05:16:00;101186.22;;;3.22;86.55
54978;BME280;40873;47.522;19.106;2023-02-20T05:18:28;101190.94;;;2.97;87.60
54978;BME280;40873;47.522;19.106;2023-02-20T05:20:56;101191.91;;;2.91;87.64
54978;BME280;40873;47.522;19.106;2023-02-20T05:23:45;101194.50;;;2.93;87.78
54978;BME280;40873;47.522;19.106;2023-02-20T05:26:18;101203.28;;;2.87;87.92
54978;BME280;40873;47.522;19.106;2023-02-20T05:28:46;101197.13;;;2.93;87.62
54978;BME280;40873;47.522;19.106;2023-02-20T05:31:13;101202.50;;;2.81;88.25
54978;BME280;40873;47.522;19.106;2023-02-20T05:33:43;101207.66;;;2.84;88.60
54978;BME280;40873;47.522;19.106;2023-02-20T05:36:10;101197.09;;;2.94;88.13
54978;BME280;40873;47.522;19.106;2023-02-20T05:38:37;101213.75;;;2.83;88.91
54978;BME280;40873;47.522;19.106;2023-02-20T05:41:06;101213.69;;;2.87;88.68
54978;BME280;40873;47.522;19.106;2023-02-20T05:43:34;101219.09;;;2.75;89.39
54978;BME280;40873;47.522;19.106;2023-02-20T05:46:00;101222.53;;;2.79;89.50
54978;BME280;40873;47.522;19.106;2023-02-20T05:48:28;101214.53;;;2.89;88.99
54978;BME280;40873;47.522;19.106;2023-02-20T05:50:54;101223.28;;;2.87;89.52
54978;BME280;40873;47.522;19.106;2023-02-20T05:53:22;101221.63;;;2.80;89.18
54978;BME280;40873;47.522;19.106;2023-02-20T05:55:48;101226.00;;;2.79;89.56
54978;BME280;40873;47.522;19.106;2023-02-20T05:58:16;101232.84;;;2.85;89.48
54978;BME280;40873;47.522;19.106;2023-02-20T06:00:42;101230.13;;;2.94;89.26
54978;BME280;40873;47.522;19.106;2023-02-20T06:03:10;101230.88;;;2.99;88.53
54978;BME280;40873;47.522;19.106;2023-02-20T06:05:36;101234.50;;;2.90;89.21
54978;BME280;40873;47.522;19.106;2023-02-20T06:08:04;101237.09;;;2.90;89.28
54978;BME280;40873;47.522;19.106;2023-02-20T06:10:31;101238.72;;;3.00;89.46
54978;BME280;40873;47.522;19.106;2023-02-20T06:12:59;101243.03;;;3.01;89.35
54978;BME280;40873;47.522;19.106;2023-02-20T06:15:26;101253.44;;;3.03;88.92
54978;BME280;40873;47.522;19.106;2023-02-20T06:17:53;101252.47;;;3.09;87.81
54978;BME280;40873;47.522;19.106;2023-02-20T06:20:20;101253.38;;;3.08;88.75
54978;BME280;40873;47.522;19.106;2023-02-20T06:22:47;101248.06;;;3.12;88.61
54978;BME280;40873;47.522;19.106;2023-02-20T06:25:15;101241.09;;;3.13;87.98
54978;BME280;40873;47.522;19.106;2023-02-20T06:27:42;101241.66;;;3.35;87.81
54978;BME280;40873;47.522;19.106;2023-02-20T06:30:09;101239.06;;;3.32;87.86
54978;BME280;40873;47.522;19.106;2023-02-20T06:32:37;101239.25;;;3.21;88.85
54978;BME280;40873;47.522;19.106;2023-02-20T06:35:04;101239.94;;;3.32;87.66
54978;BME280;40873;47.522;19.106;2023-02-20T06:37:31;101244.22;;;3.36;90.79
54978;BME280;40873;47.522;19.106;2023-02-20T06:39:58;101249.25;;;3.48;90.74
54978;BME280;40873;47.522;19.106;2023-02-20T06:42:25;101255.06;;;3.64;89.38
54978;BME280;40873;47.522;19.106;2023-02-20T06:44:52;101250.72;;;3.63;87.09
54978;BME280;40873;47.522;19.106;2023-02-20T06:47:20;101249.81;;;3.66;85.85
54978;BME280;40873;47.522;19.106;2023-02-20T06:49:46;101257.00;;;3.51;86.06
54978;BME280;40873;47.522;19.106;2023-02-20T06:52:13;101260.44;;;3.53;86.04
54978;BME280;40873;47.522;19.106;2023-02-20T06:54:40;101246.50;;;3.54;85.41
54978;BME280;40873;47.522;19.106;2023-02-20T06:57:07;101252.38;;;3.69;85.32
54978;BME280;40873;47.522;19.106;2023-02-20T06:59:37;101250.69;;;3.65;85.15
54978;BME280;40873;47.522;19.106;2023-02-20T07:02:13;101256.66;;;3.71;85.25
54978;BME280;40873;47.522;19.106;2023-02-20T07:04:40;101257.47;;;3.76;84.45
54978;BME280;40873;47.522;19.106;2023-02-20T07:07:08;101263.50;;;3.78;83.80
54978;BME280;40873;47.522;19.106;2023-02-20T07:09:35;101255.72;;;3.75;83.49
54978;BME280;40873;47.522;19.106;2023-02-20T07:12:02;101240.69;;;3.90;83.17
54978;BME280;40873;47.522;19.106;2023-02-20T07:14:29;101253.06;;;3.78;83.43
54978;BME280;40873;47.522;19.106;2023-02-20T07:16:56;101241.84;;;3.73;84.83
54978;BME280;40873;47.522;19.106;2023-02-20T07:19:23;101254.63;;;3.87;86.68
54978;BME280;40873;47.522;19.106;2023-02-20T07:21:50;101251.94;;;3.92;85.32
54978;BME280;40873;47.522;19.106;2023-02-20T07:24:17;101250.38;;;3.81;85.36
54978;BME280;40873;47.522;19.106;2023-02-20T07:26:44;101243.22;;;3.93;86.19
54978;BME280;40873;47.522;19.106;2023-02-20T07:29:14;101243.22;;;3.93;85.20
54978;BME280;40873;47.522;19.106;2023-02-20T07:31:41;101243.00;;;4.05;84.93
54978;BME280;40873;47.522;19.106;2023-02-20T07:34:08;101248.06;;;4.12;84.66
54978;BME280;40873;47.522;19.106;2023-02-20T07:36:35;101250.59;;;4.16;84.76
54978;BME280;40873;47.522;19.106;2023-02-20T07:39:03;101256.25;;;4.39;85.72
54978;BME280;40873;47.522;19.106;2023-02-20T07:41:32;101255.69;;;4.66;82.59
54978;BME280;40873;47.522;19.106;2023-02-20T07:44:01;101254.34;;;4.86;80.60
54978;BME280;40873;47.522;19.106;2023-02-20T07:46:28;101257.09;;;4.80;81.72
54978;BME280;40873;47.522;19.106;2023-02-20T07:49:04;101257.72;;;4.51;81.55
54978;BME280;40873;47.522;19.106;2023-02-20T07:51:31;101253.28;;;4.56;82.24
54978;BME280;40873;47.522;19.106;2023-02-20T07:53:59;101245.06;;;4.73;83.71
54978;BME280;40873;47.522;19.106;2023-02-20T07:56:26;101243.47;;;4.65;82.75
54978;BME280;40873;47.522;19.106;2023-02-20T07:58:53;101239.66;;;4.82;84.12
54978;BME280;40873;47.522;19.106;2023-02-20T08:01:20;101247.91;;;5.02;83.34
54978;BME280;40873;47.522;19.106;2023-02-20T08:03:47;101255.38;;;4.79;83.20
54978;BME280;40873;47.522;19.106;2023-02-20T08:06:18;101252.03;;;4.72;84.08
54978;BME280;40873;47.522;19.106;2023-02-20T08:08:49;101244.94;;;4.79;84.62
54978;BME280;40873;47.522;19.106;2023-02-20T08:11:18;101246.25;;;4.98;85.01
54978;BME280;40873;47.522;19.106;2023-02-20T08:13:45;101241.44;;;5.17;85.52
54978;BME280;40873;47.522;19.106;2023-02-20T08:16:15;101229.09;;;5.23;84.28
54978;BME280;40873;47.522;19.106;2023-02-20T08:18:43;101238.97;;;5.46;84.37
54978;BME280;40873;47.522;19.106;2023-02-20T08:21:10;101243.09;;;5.55;83.95
54978;BME280;40873;47.522;19.106;2023-02-20T08:23:37;101237.50;;;5.70;83.08
54978;BME280;40873;47.522;19.106;2023-02-20T08:26:04;101235.00;;;5.66;83.02
54978;BME280;40873;47.522;19.106;2023-02-20T08:28:31;101245.16;;;5.78;82.74
54978;BME280;40873;47.522;19.106;2023-02-20T08:30:58;101238.28;;;5.74;82.89
54978;BME280;40873;47.522;19.106;2023-02-20T08:33:25;101238.28;;;5.74;83.49
54978;BME280;40873;47.522;19.106;2023-02-20T08:35:52;101229.66;;;5.69;84.60
54978;BME280;40873;47.522;19.106;2023-02-20T08:38:25;101220.16;;;5.66;85.38
54978;BME280;40873;47.522;19.106;2023-02-20T08:40:52;101229.47;;;5.76;84.66
54978;BME280;40873;47.522;19.106;2023-02-20T08:43:19;101216.81;;;5.94;85.01
54978;BME280;40873;47.522;19.106;2023-02-20T08:45:46;101217.94;;;6.16;84.36
54978;BME280;40873;47.522;19.106;2023-02-20T08:48:13;101218.69;;;6.21;84.17
54978;BME280;40873;47.522;19.106;2023-02-20T08:50:40;101214.06;;;6.29;83.34
54978;BME280;40873;47.522;19.106;2023-02-20T08:53:08;101214.75;;;6.36;84.61
54978;BME280;40873;47.522;19.106;2023-02-20T08:55:35;101211.00;;;6.45;83.13
54978;BME280;40873;47.522;19.106;2023-02-20T08:58:02;101212.59;;;6.50;81.60
54978;BME280;40873;47.522;19.106;2023-02-20T09:00:29;101215.03;;;6.84;80.73
54978;BME280;40873;47.522;19.106;2023-02-20T09:02:56;101209.66;;;6.61;80.90
54978;BME280;40873;47.522;19.106;2023-02-20T09:05:23;101211.13;;;6.70;81.26
54978;BME280;40873;47.522;19.106;2023-02-20T09:07:50;101204.84;;;7.03;82.16
54978;BME280;40873;47.522;19.106;2023-02-20T09:10:18;101200.28;;;7.08;80.45
54978;BME280;40873;47.522;19.106;2023-02-20T09:12:45;101204.78;;;7.05;81.78
54978;BME280;40873;47.522;19.106;2023-02-20T09:15:13;101198.41;;;6.85;80.52
54978;BME280;40873;47.522;19.106;2023-02-20T09:17:44;101198.19;;;6.92;81.81
54978;BME280;40873;47.522;19.106;2023-02-20T09:20:15;101186.41;;;7.05;81.76
54978;BME280;40873;47.522;19.106;2023-02-20T09:22:42;101186.25;;;6.83;82.22
54978;BME280;40873;47.522;19.106;2023-02-20T09:25:10;101189.91;;;6.77;83.87
54978;BME280;40873;47.522;19.106;2023-02-20T09:27:37;101189.13;;;6.75;84.00
54978;BME280;40873;47.522;19.106;2023-02-20T09:30:05;101175.47;;;6.64;85.69
54978;BME280;40873;47.522;19.106;2023-02-20T09:32:33;101172.16;;;6.85;85.37
54978;BME280;40873;47.522;19.106;2023-02-20T09:35:00;101178.88;;;6.66;87.06
54978;BME280;40873;47.522;19.106;2023-02-20T09:37:27;101181.63;;;6.63;88.23
54978;BME280;40873;47.522;19.106;2023-02-20T09:39:54;101180.81;;;6.61;88.94
54978;BME280;40873;47.522;19.106;2023-02-20T09:45:24;101172.47;;;6.76;89.76
54978;BME280;40873;47.522;19.106;2023-02-20T09:48:06;101177.53;;;6.82;90.08
54978;BME280;40873;47.522;19.106;2023-02-20T09:50:46;101174.66;;;6.90;89.43
54978;BME280;40873;47.522;19.106;2023-02-20T09:56:16;101173.84;;;7.14;89.11
54978;BME280;40873;47.522;19.106;2023-02-20T09:58:54;101152.59;;;7.22;89.59
54978;BME280;40873;47.522;19.106;2023-02-20T10:01:27;101140.81;;;6.82;93.28
54978;BME280;40873;47.522;19.106;2023-02-20T10:03:57;101132.69;;;7.17;92.78
54978;BME280;40873;47.522;19.106;2023-02-20T10:06:31;101133.75;;;7.61;91.46
54978;BME280;40873;47.522;19.106;2023-02-20T10:08:58;101125.88;;;7.61;91.69
54978;BME280;40873;47.522;19.106;2023-02-20T10:14:59;101116.66;;;7.49;94.07
54978;BME280;40873;47.522;19.106;2023-02-20T10:22:34;101126.00;;;7.81;91.85
54978;BME280;40873;47.522;19.106;2023-02-20T10:25:10;101124.31;;;7.55;92.79
54978;BME280;40873;47.522;19.106;2023-02-20T10:30:12;101108.03;;;7.94;91.08
54978;BME280;40873;47.522;19.106;2023-02-20T10:33:09;101112.03;;;8.04;91.33
54978;BME280;40873;47.522;19.106;2023-02-20T10:35:43;101098.53;;;8.59;88.22
54978;BME280;40873;47.522;19.106;2023-02-20T10:38:16;101094.88;;;8.63;87.03
54978;BME280;40873;47.522;19.106;2023-02-20T10:40:50;101084.53;;;9.21;85.30
54978;BME280;40873;47.522;19.106;2023-02-20T10:43:21;101080.78;;;9.47;83.32
54978;BME280;40873;47.522;19.106;2023-02-20T10:48:17;101073.31;;;9.96;80.89
54978;BME280;40873;47.522;19.106;2023-02-20T10:50:58;101063.94;;;10.07;79.43
54978;BME280;40873;47.522;19.106;2023-02-20T10:56:13;101053.34;;;9.90;80.17
54978;BME280;40873;47.522;19.106;2023-02-20T11:01:23;101041.63;;;10.14;78.53
54978;BME280;40873;47.522;19.106;2023-02-20T11:03:56;101046.19;;;10.49;77.01
54978;BME280;40873;47.522;19.106;2023-02-20T11:06:33;101032.72;;;10.72;75.63
54978;BME280;40873;47.522;19.106;2023-02-20T11:09:03;101032.31;;;10.45;75.81
54978;BME280;40873;47.522;19.106;2023-02-20T11:11:34;101031.97;;;10.34;76.43
54978;BME280;40873;47.522;19.106;2023-02-20T11:14:15;101007.72;;;10.62;75.10
54978;BME280;40873;47.522;19.106;2023-02-20T11:16:53;101010.25;;;10.46;75.81
54978;BME280;40873;47.522;19.106;2023-02-20T11:19:27;101008.31;;;10.32;75.89
54978;BME280;40873;47.522;19.106;2023-02-20T11:21:56;100990.78;;;10.31;75.79
54978;BME280;40873;47.522;19.106;2023-02-20T11:27:18;100988.78;;;10.88;73.72
54978;BME280;40873;47.522;19.106;2023-02-20T11:29:59;100984.44;;;10.53;75.75
54978;BME280;40873;47.522;19.106;2023-02-20T11:32:37;100991.47;;;10.35;75.92
54978;BME280;40873;47.522;19.106;2023-02-20T11:37:44;100992.09;;;10.23;77.76
54978;BME280;40873;47.522;19.106;2023-02-20T11:40:29;100973.25;;;10.11;78.23
54978;BME280;40873;47.522;19.106;2023-02-20T11:43:17;100978.81;;;10.24;78.06
54978;BME280;40873;47.522;19.106;2023-02-20T11:45:45;100968.66;;;10.68;76.45
54978;BME280;40873;47.522;19.106;2023-02-20T11:48:17;100957.63;;;10.95;74.66
54978;BME280;40873;47.522;19.106;2023-02-20T11:50:47;100960.63;;;11.38;73.02
54978;BME280;40873;47.522;19.106;2023-02-20T11:53:32;100948.66;;;11.79;71.38
54978;BME280;40873;47.522;19.106;2023-02-20T11:56:13;100938.03;;;12.27;68.57
54978;BME280;40873;47.522;19.106;2023-02-20T11:58:41;100940.78;;;12.25;68.91
54978;BME280;40873;47.522;19.106;2023-02-20T12:01:32;100928.44;;;11.63;70.66
54978;BME280;40873;47.522;19.106;2023-02-20T12:04:00;100922.72;;;11.70;70.94
54978;BME280;40873;47.522;19.106;2023-02-20T12:09:03;100916.06;;;11.32;70.33
54978;BME280;40873;47.522;19.106;2023-02-20T12:11:32;100906.50;;;11.29;70.88
54978;BME280;40873;47.522;19.106;2023-02-20T12:14:00;100892.63;;;11.73;69.73
54978;BME280;40873;47.522;19.106;2023-02-20T12:16:50;100884.34;;;11.95;69.22
54978;BME280;40873;47.522;19.106;2023-02-20T12:28:02;100868.81;;;12.04;66.72
54978;BME280;40873;47.522;19.106;2023-02-20T12:33:50;100871.81;;;11.98;67.35
54978;BME280;40873;47.522;19.106;2023-02-20T12:36:35;100859.19;;;12.48;65.59
54978;BME280;40873;47.522;19.106;2023-02-20T12:39:25;100861.41;;;12.25;64.94
54978;BME280;40873;47.522;19.106;2023-02-20T12:42:23;100869.34;;;11.95;65.44
54978;BME280;40873;47.522;19.106;2023-02-20T12:47:36;100856.25;;;11.62;67.08
54978;BME280;40873;47.522;19.106;2023-02-20T12:56:01;100854.50;;;11.61;69.08
54978;BME280;40873;47.522;19.106;2023-02-20T12:58:37;100862.03;;;11.85;68.61
54978;BME280;40873;47.522;19.106;2023-02-20T13:01:13;100868.44;;;11.80;68.43
54978;BME280;40873;47.522;19.106;2023-02-20T13:06:48;100840.56;;;12.05;68.09
54978;BME280;40873;47.522;19.106;2023-02-20T13:09:21;100844.81;;;12.07;68.18
54978;BME280;40873;47.522;19.106;2023-02-20T13:11:54;100841.34;;;12.07;68.74
54978;BME280;40873;47.522;19.106;2023-02-20T13:14:29;100844.53;;;11.82;69.19
54978;BME280;40873;47.522;19.106;2023-02-20T13:19:48;100843.44;;;11.86;69.96
54978;BME280;40873;47.522;19.106;2023-02-20T13:22:21;100836.75;;;11.95;69.33
54978;BME280;40873;47.522;19.106;2023-02-20T13:24:47;100825.06;;;11.99;69.67
54978;BME280;40873;47.522;19.106;2023-02-20T13:27:29;100819.31;;;11.76;70.47
54978;BME280;40873;47.522;19.106;2023-02-20T13:30:00;100810.25;;;11.80;70.41
54978;BME280;40873;47.522;19.106;2023-02-20T13:32:30;100808.63;;;11.78;69.82
54978;BME280;40873;47.522;19.106;2023-02-20T13:38:16;100817.28;;;11.96;67.81
54978;BME280;40873;47.522;19.106;2023-02-20T13:40:44;100807.19;;;11.88;69.16
54978;BME280;40873;47.522;19.106;2023-02-20T13:45:39;100807.91;;;12.06;66.95
54978;BME280;40873;47.522;19.106;2023-02-20T13:48:42;100812.16;;;12.23;66.16
54978;BME280;40873;47.522;19.106;2023-02-20T13:59:10;100782.19;;;12.08;66.03
54978;BME280;40873;47.522;19.106;2023-02-20T14:02:13;100775.78;;;11.98;65.52
54978;BME280;40873;47.522;19.106;2023-02-20T14:05:00;100768.38;;;11.89;65.69
54978;BME280;40873;47.522;19.106;2023-02-20T14:07:38;100764.81;;;11.74;65.48
54978;BME280;40873;47.522;19.106;2023-02-20T14:10:22;100769.94;;;11.61;65.85
54978;BME280;40873;47.522;19.106;2023-02-20T14:13:12;100788.38;;;11.63;65.28
54978;BME280;40873;47.522;19.106;2023-02-20T14:15:47;100769.94;;;11.61;65.05
54978;BME280;40873;47.522;19.106;2023-02-20T14:18:23;100787.25;;;11.67;65.57
54978;BME280;40873;47.522;19.106;2023-02-20T14:21:01;100790.22;;;11.61;65.06
54978;BME280;40873;47.522;19.106;2023-02-20T14:23:34;100797.91;;;11.65;65.26
54978;BME280;40873;47.522;19.106;2023-02-20T14:26:04;100778.75;;;11.62;64.47
54978;BME280;40873;47.522;19.106;2023-02-20T14:28:33;100772.44;;;11.64;65.15
54978;BME280;40873;47.522;19.106;2023-02-20T14:34:20;100760.25;;;11.62;65.19
54978;BME280;40873;47.522;19.106;2023-02-20T14:37:16;100757.22;;;11.68;65.09
54978;BME280;40873;47.522;19.106;2023-02-20T14:43:00;100742.31;;;11.83;63.84
54978;BME280;40873;47.522;19.106;2023-02-20T14:45:27;100737.25;;;11.78;64.04
54978;BME280;40873;47.522;19.106;2023-02-20T14:47:59;100741.59;;;11.79;64.30
54978;BME280;40873;47.522;19.106;2023-02-20T14:50:30;100742.44;;;11.79;63.11
54978;BME280;40873;47.522;19.106;2023-02-20T14:55:28;100749.50;;;11.65;64.17
54978;BME280;40873;47.522;19.106;2023-02-20T14:57:56;100744.66;;;11.57;64.07
54978;BME280;40873;47.522;19.106;2023-02-20T15:00:31;100738.31;;;11.60;64.25